Okinawa, Japón

7:01 PM JST en Agosto 29, 2014 (GMT +0900)
Kadena Air Base | Change Station
CLOSE
Current Station
Aeropuerto
Location: Okinawa,
Altura: 148 ft
Estaciones meteorológicas cercanas

Alt 148 ft 26.36 °N, 127.77 °E | Updated 3 minutes ago

Overcast
Nublado
84 ° F
Sensación térmica 95 ° F
N
8
Viento Variable Viento desde ESE

Hoy
Alta -- | Baja -- ° F
--% Posibilidad de precipitaciones
Ayer
Alta -- | Baja -- ° F
Precip. -- pul
6:07 AM 6:52 PM
Creciente, 13% visible
Presión 29.95 pul
Visibilidad 10.0 Millas
Nubes Muy nublado 2500 ft
Nublado 3300 ft
Índice de calor 95 ° F
Punto de rocío 78 ° F
Humedad 82%
Precipitaciones 0.00 pul
Espesor de la nieve No disponible.
UV 0 de una escala de 12
Polen No disponible.
Calidad del aire No disponible.
Flu Activity No disponible.
METAR RODN 290958Z AUTO 11007KT 10SM BKN025 OVC033 29/26 A2993 RMK AO2 SLP140 T02890256

More Conditions Fewer Conditions

Presión 29.95 pul
Visibilidad 10.0 Millas
Nubes Muy nublado 2500 ft
Nublado 3300 ft
Índice de calor 95 ° F
Punto de rocío 78 ° F
Humedad 82%
Precipitaciones 0.00 pul
Espesor de la nieve No disponible.
UV 0 de una escala de 12
Polen No disponible.
Calidad del aire No disponible.
Flu Activity No disponible.
METAR RODN 290958Z AUTO 11007KT 10SM BKN025 OVC033 29/26 A2993 RMK AO2 SLP140 T02890256

More Conditions Fewer Conditions

10-Day Weather Forecast

Almanac

Astronomía

Aug. 29, 2014 Salida Puesta
Hora real 6:07 AM JST 6:52 PM JST
Crepúsculo civil 5:43 AM JST 7:15 PM JST
Crepúsculo náutico 5:15 AM JST 7:43 PM JST
Crepúsculo astronómico 4:47 AM JST 8:11 PM JST
Luna 8:59 AM JST 8:53 PM JST
Horas de luz 13h 32m
Horas de luz
12h 45m
Tomorrow will be 1m 28s shorter.
Creciente, 13% of the Moon is Illuminated
Hoy
Creciente
Sep 2
Cuarto creciente
Sep 8
Luna llena
Sep 15
Cuarto menguante
Sep 24
Nueva

Extremos de ayer

Máximos del país Bajas del país

Community

WunderPhotos

Upload Photos

1,748,209 ¡fotos cargadas!

Nearby

Calidad del aire

Not available.

Grosos de nieve

Not available.

Actividad de terremotos

Ciudad Distance Mag. Tiempo y dato
No hay informes recientes de la actividad sísmica.
Magnitud mínima muestra es 2,5.

Temperaturas de aguas costeras

Lugar Temperatura
Sin partes meteorológicos de las estaciones

Estaciones meteorológicas cercanas